Time;durP1;ratioP1;P1;durP2;ratioP2;P2;SDS_P1;SDS_P2;PMS_P1;PMS_P2;Temp;Humidity;BMP_temperature;BMP_pressure;BME280_temperature;BME280_humidity;BME280_pressure;Samples;Min_cycle;Max_cycle;Signal;HPM_P1;HPM_P2
2021/10/02 00:34:11;;;;;;;9.13;2.88;;;22.60;61.60;;;;;;5167308;28;20061;-48
2021/10/02 00:45:06;;;;;;;6.28;3.22;;;22.60;61.60;;;;;;5161938;28;20054;-49
2021/10/02 00:47:38;;;;;;;6.20;3.28;;;22.60;61.50;;;;;;5179803;28;20716;-47
2021/10/02 00:50:11;;;;;;;9.07;3.47;;;22.60;61.40;;;;;;5164391;28;20053;-49
2021/10/02 00:52:45;;;;;;;8.23;3.10;;;22.50;61.40;;;;;;5158459;28;20042;-48
2021/10/02 00:55:17;;;;;;;10.02;3.45;;;22.60;61.60;;;;;;5163262;28;20056;-47
2021/10/02 00:57:50;;;;;;;8.10;2.78;;;22.50;61.40;;;;;;5158543;28;20429;-48
2021/10/02 01:00:25;;;;;;;10.80;2.73;;;22.50;61.50;;;;;;5162443;28;20491;-48
2021/10/02 01:03:09;;;;;;;12.43;3.08;;;22.50;61.60;;;;;;5166770;28;20053;-48
2021/10/02 01:06:04;;;;;;;10.98;3.28;;;22.50;61.60;;;;;;5165492;28;20038;-49
2021/10/02 01:08:50;;;;;;;9.90;3.40;;;22.50;61.80;;;;;;5156230;28;20050;-46
2021/10/02 01:11:44;;;;;;;5.63;2.83;;;22.50;61.80;;;;;;5164880;28;20046;-47
2021/10/02 01:14:44;;;;;;;7.47;2.67;;;22.50;61.70;;;;;;5180331;28;20522;-47
2021/10/02 01:17:41;;;;;;;8.90;3.17;;;22.50;61.80;;;;;;5164424;28;20072;-48
2021/10/02 01:20:36;;;;;;;5.93;3.20;;;22.50;61.90;;;;;;5167580;28;20054;-48
2021/10/02 01:23:27;;;;;;;6.60;3.20;;;22.50;61.80;;;;;;5161482;28;20155;-47
2021/10/02 01:26:37;;;;;;;3.63;2.53;;;22.50;61.70;;;;;;5166440;28;20045;-46
2021/10/02 01:29:12;;;;;;;7.40;2.90;;;22.50;61.70;;;;;;5165357;28;20482;-49
2021/10/02 01:32:14;;;;;;;6.15;3.00;;;22.50;61.80;;;;;;5167888;28;20046;-47
2021/10/02 01:35:16;;;;;;;6.45;3.00;;;22.50;61.60;;;;;;5161213;28;20061;-49
2021/10/02 01:49:08;;;;;;;3.95;2.80;;;22.50;61.60;;;;;;5166625;28;20046;-47
2021/10/02 01:51:43;;;;;;;6.30;3.30;;;22.40;61.60;;;;;;5162030;28;20042;-51
2021/10/02 01:54:16;;;;;;;4.70;2.63;;;22.50;61.60;;;;;;5163793;28;20058;-47
2021/10/02 01:56:49;;;;;;;3.90;2.83;;;22.40;61.50;;;;;;5159157;28;20057;-46
2021/10/02 01:59:26;;;;;;;3.53;2.80;;;22.40;61.50;;;;;;5163911;28;20050;-49
2021/10/02 02:02:00;;;;;;;3.25;2.45;;;22.40;61.40;;;;;;5163143;28;20064;-47
2021/10/02 02:04:34;;;;;;;7.25;2.97;;;22.40;61.40;;;;;;5167450;28;20053;-47
2021/10/02 02:07:08;;;;;;;3.80;2.67;;;22.40;61.40;;;;;;5164677;28;20045;-47
2021/10/02 02:09:42;;;;;;;;;;;22.40;61.30;;;;;;5165737;28;20520;-48
2021/10/02 02:12:17;;;;;;;4.15;3.03;;;22.40;61.30;;;;;;5165310;28;20321;-48
2021/10/02 02:14:50;;;;;;;3.30;2.80;;;22.40;61.40;;;;;;5160968;28;20072;-48
2021/10/02 02:17:23;;;;;;;;;;;22.40;61.30;;;;;;5162555;28;20046;-47
2021/10/02 02:19:57;;;;;;;4.72;2.80;;;22.30;61.30;;;;;;5164835;28;20179;-48
2021/10/02 02:22:29;;;;;;;;;;;22.40;61.40;;;;;;5162628;28;20068;-49
2021/10/02 02:25:04;;;;;;;2.83;2.50;;;22.40;61.40;;;;;;5165120;28;19932;-48
2021/10/02 02:27:37;;;;;;;5.32;2.50;;;22.30;61.30;;;;;;5167412;28;20482;-47
2021/10/02 02:30:10;;;;;;;6.63;2.75;;;22.40;61.40;;;;;;5168840;28;20053;-48
2021/10/02 02:32:42;;;;;;;4.00;3.13;;;22.40;61.30;;;;;;5164613;28;20061;-48
2021/10/02 02:35:17;;;;;;;4.72;2.50;;;22.40;61.30;;;;;;5169379;28;20941;-48
2021/10/02 02:37:50;;;;;;;3.33;2.40;;;22.40;61.30;;;;;;5166897;28;20825;-49
2021/10/02 02:40:23;;;;;;;3.08;2.55;;;22.40;61.40;;;;;;5169729;28;20045;-50
2021/10/02 02:42:56;;;;;;;3.58;2.83;;;22.30;61.90;;;;;;5168049;28;20048;-49
2021/10/02 02:45:29;;;;;;;4.40;2.83;;;22.30;61.30;;;;;;5166008;28;22590;-48
2021/10/02 02:48:13;;;;;;;3.05;2.45;;;22.40;61.30;;;;;;5167027;28;20045;-51
2021/10/02 02:50:59;;;;;;;5.13;2.60;;;22.40;61.40;;;;;;5168937;28;20054;-47
2021/10/02 02:54:02;;;;;;;4.30;2.53;;;22.40;61.30;;;;;;5162939;28;20044;-49
2021/10/02 02:56:42;;;;;;;4.93;3.03;;;22.40;61.30;;;;;;5163682;28;20411;-49
2021/10/02 02:59:27;;;;;;;8.68;2.75;;;22.30;61.30;;;;;;5165783;28;20046;-47
2021/10/02 03:02:01;;;;;;;5.32;2.83;;;22.40;61.30;;;;;;5166052;28;20050;-50
2021/10/02 03:04:35;;;;;;;3.75;2.65;;;22.30;61.30;;;;;;5167755;28;20187;-50
2021/10/02 03:07:11;;;;;;;3.28;2.63;;;22.30;61.30;;;;;;5163200;28;20057;-52
2021/10/02 03:09:47;;;;;;;3.50;2.40;;;22.30;61.20;;;;;;5168536;28;20064;-48
2021/10/02 03:12:31;;;;;;;6.68;2.92;;;22.30;61.20;;;;;;5168094;28;20053;-50
2021/10/02 03:15:05;;;;;;;3.55;2.83;;;22.30;61.10;;;;;;5164106;28;20065;-48
2021/10/02 03:17:40;;;;;;;4.78;2.88;;;22.30;61.20;;;;;;5174699;28;20050;-50
2021/10/02 03:20:14;;;;;;;4.18;2.78;;;22.30;61.20;;;;;;5166121;28;20049;-50
2021/10/02 03:22:49;;;;;;;3.58;3.10;;;22.30;61.20;;;;;;5165267;28;20061;-46
2021/10/02 03:25:25;;;;;;;5.18;2.90;;;22.30;61.10;;;;;;5168648;28;20049;-49
2021/10/02 03:27:59;;;;;;;4.93;2.75;;;22.30;61.10;;;;;;5167329;28;20046;-49
2021/10/02 03:30:32;;;;;;;3.45;2.90;;;22.30;61.10;;;;;;5162330;28;20964;-51
2021/10/02 03:33:05;;;;;;;4.93;2.60;;;22.30;61.10;;;;;;5165052;28;20762;-49
2021/10/02 03:35:38;;;;;;;5.27;2.53;;;22.30;61.10;;;;;;5169701;28;20053;-48
2021/10/02 03:38:10;;;;;;;5.45;2.63;;;22.30;61.20;;;;;;5164272;28;20051;-49
2021/10/02 03:40:43;;;;;;;6.72;3.10;;;22.30;61.20;;;;;;5161474;28;20061;-48
2021/10/02 03:43:16;;;;;;;5.93;2.55;;;22.30;61.10;;;;;;5167781;28;20724;-49
2021/10/02 03:45:48;;;;;;;4.38;2.30;;;22.30;61.10;;;;;;5158946;28;20041;-48
2021/10/02 03:48:21;;;;;;;3.55;2.60;;;22.30;61.10;;;;;;5164131;28;20623;-50
2021/10/02 03:50:53;;;;;;;4.95;3.40;;;22.30;61.10;;;;;;5166098;28;20053;-49
2021/10/02 03:53:29;;;;;;;5.18;2.72;;;22.30;61.10;;;;;;5162121;28;20055;-49
2021/10/02 03:56:04;;;;;;;4.43;3.08;;;22.20;61.00;;;;;;5158012;28;20513;-47
2021/10/02 03:58:37;;;;;;;3.90;2.60;;;22.20;61.00;;;;;;5161209;28;20366;-50
2021/10/02 04:01:10;;;;;;;4.75;3.03;;;22.20;61.80;;;;;;5161232;28;20053;-48
2021/10/02 04:03:43;;;;;;;6.10;2.67;;;22.20;61.00;;;;;;5167700;28;20137;-48
2021/10/02 04:06:15;;;;;;;4.22;2.65;;;22.20;61.00;;;;;;5166287;28;21484;-47
2021/10/02 04:08:48;;;;;;;4.38;2.75;;;22.20;61.00;;;;;;5166258;28;20491;-48
2021/10/02 04:11:20;;;;;;;5.80;2.70;;;22.20;60.90;;;;;;5166058;28;20042;-50
2021/10/02 04:13:52;;;;;;;6.10;2.42;;;22.20;61.00;;;;;;5163630;28;20041;-49
2021/10/02 04:16:25;;;;;;;7.57;3.00;;;22.20;61.00;;;;;;5165318;28;20055;-50
2021/10/02 04:18:59;;;;;;;3.70;2.70;;;22.20;61.00;;;;;;5164680;28;20640;-47
2021/10/02 04:21:32;;;;;;;4.70;3.10;;;22.20;61.00;;;;;;5163499;28;20072;-47
2021/10/02 04:24:04;;;;;;;5.93;2.90;;;22.20;60.90;;;;;;5159555;28;20046;-51
2021/10/02 04:26:37;;;;;;;4.90;3.05;;;22.20;61.00;;;;;;5163984;28;20042;-50
2021/10/02 04:29:10;;;;;;;4.88;3.17;;;22.20;60.90;;;;;;5164929;28;20042;-49
2021/10/02 04:31:43;;;;;;;5.32;2.50;;;22.20;60.90;;;;;;5178025;28;20042;-47
2021/10/02 04:34:15;;;;;;;6.07;2.85;;;22.20;60.90;;;;;;5167209;28;20052;-49
2021/10/02 04:36:48;;;;;;;3.83;2.20;;;22.20;60.90;;;;;;5165433;28;20072;-49
2021/10/02 04:39:20;;;;;;;4.43;2.80;;;22.20;60.80;;;;;;5167484;28;20061;-46
2021/10/02 04:41:53;;;;;;;8.03;2.80;;;22.20;60.80;;;;;;5165684;28;20056;-51
2021/10/02 04:44:26;;;;;;;7.28;3.00;;;22.20;60.80;;;;;;5158994;28;20057;-49
2021/10/02 04:46:59;;;;;;;5.78;2.45;;;22.20;61.50;;;;;;5153322;28;20048;-51
2021/10/02 04:49:31;;;;;;;9.63;2.53;;;22.20;61.10;;;;;;5156875;28;20058;-51
2021/10/02 04:52:04;;;;;;;5.40;2.45;;;22.20;61.20;;;;;;5158669;28;20385;-48
2021/10/02 04:54:36;;;;;;;4.03;2.47;;;22.20;61.30;;;;;;5160719;28;20045;-48
2021/10/02 04:57:08;;;;;;;3.55;2.33;;;22.20;61.40;;;;;;5164565;28;20053;-50
2021/10/02 04:59:41;;;;;;;5.78;2.85;;;22.20;61.50;;;;;;5164594;28;20421;-47
2021/10/02 05:02:14;;;;;;;4.68;2.85;;;22.20;61.60;;;;;;5165783;28;20065;-49
2021/10/02 05:04:46;;;;;;;5.47;3.08;;;22.20;61.70;;;;;;5162206;28;20695;-49
2021/10/02 05:07:19;;;;;;;5.75;2.83;;;22.20;61.70;;;;;;5160513;28;20057;-49
2021/10/02 05:09:51;;;;;;;5.30;2.50;;;22.20;61.70;;;;;;5156359;28;20049;-48
2021/10/02 05:12:23;;;;;;;3.65;2.70;;;22.20;61.80;;;;;;5159323;28;20521;-48
2021/10/02 05:14:56;;;;;;;6.07;2.70;;;22.30;61.80;;;;;;5157851;28;20049;-49
2021/10/02 05:17:28;;;;;;;4.15;2.65;;;22.30;61.80;;;;;;5158087;28;20060;-50
2021/10/02 05:20:01;;;;;;;3.60;2.33;;;22.30;61.90;;;;;;5170926;28;20847;-49
2021/10/02 05:22:34;;;;;;;3.60;2.67;;;22.30;61.90;;;;;;5160186;28;20053;-49
2021/10/02 05:25:06;;;;;;;4.00;2.72;;;22.40;62.00;;;;;;5155997;28;20544;-47
2021/10/02 05:27:39;;;;;;;4.88;2.35;;;22.40;62.00;;;;;;5154933;28;20521;-49
2021/10/02 05:30:11;;;;;;;4.13;2.40;;;22.40;62.00;;;;;;5156289;28;20046;-51
2021/10/02 05:32:44;;;;;;;2.90;2.05;;;22.40;62.00;;;;;;5147383;28;20458;-48
2021/10/02 05:35:16;;;;;;;4.22;2.53;;;22.40;62.00;;;;;;5140568;28;20038;-50
2021/10/02 05:37:48;;;;;;;4.13;2.50;;;22.40;62.00;;;;;;5151178;28;20054;-50
2021/10/02 05:40:21;;;;;;;4.32;2.47;;;22.50;62.10;;;;;;5159416;28;20080;-47
2021/10/02 05:42:53;;;;;;;6.90;2.60;;;22.50;62.20;;;;;;5159754;28;21109;-48
2021/10/02 05:45:26;;;;;;;5.63;2.50;;;22.50;62.30;;;;;;5157911;28;20054;-49
2021/10/02 05:47:58;;;;;;;4.47;2.20;;;22.50;62.30;;;;;;5157475;28;20050;-52
2021/10/02 05:50:31;;;;;;;4.50;2.38;;;22.50;62.30;;;;;;5161490;28;20431;-52
2021/10/02 05:53:03;;;;;;;3.60;2.40;;;22.50;62.30;;;;;;5153524;28;20054;-48
2021/10/02 05:55:35;;;;;;;4.80;2.50;;;22.50;62.30;;;;;;5150738;28;20046;-49
2021/10/02 05:58:08;;;;;;;4.07;2.45;;;22.60;62.40;;;;;;5160323;28;20038;-50
2021/10/02 06:00:40;;;;;;;2.55;2.15;;;22.60;62.40;;;;;;5161218;28;20050;-48
2021/10/02 06:03:13;;;;;;;3.95;2.25;;;22.60;62.50;;;;;;5164177;28;20064;-50
2021/10/02 06:05:45;;;;;;;4.57;2.25;;;22.60;62.40;;;;;;5165578;28;20050;-51
2021/10/02 06:08:18;;;;;;;5.82;2.38;;;22.60;62.40;;;;;;5165929;28;20061;-48
2021/10/02 06:10:50;;;;;;;6.38;2.65;;;22.60;62.40;;;;;;5145426;28;20243;-48
2021/10/02 06:13:23;;;;;;;4.53;2.58;;;22.60;62.50;;;;;;5164619;28;20438;-47
2021/10/02 06:15:55;;;;;;;9.50;2.90;;;22.70;62.50;;;;;;5175020;28;20057;-48
2021/10/02 06:18:28;;;;;;;4.72;2.30;;;22.60;62.50;;;;;;5163367;28;20145;-49
2021/10/02 06:21:00;;;;;;;4.38;2.63;;;22.70;62.60;;;;;;5166899;28;20062;-49
2021/10/02 06:23:33;;;;;;;3.05;2.28;;;22.70;62.60;;;;;;5166457;28;20046;-48
2021/10/02 06:26:05;;;;;;;5.00;2.38;;;22.70;62.60;;;;;;5147858;28;20636;-49
2021/10/02 06:28:38;;;;;;;7.33;2.50;;;22.60;62.50;;;;;;5144864;28;20491;-49
2021/10/02 06:31:11;;;;;;;3.63;2.30;;;22.70;62.70;;;;;;5148584;28;21149;-47
2021/10/02 06:33:44;;;;;;;3.80;2.42;;;22.70;62.70;;;;;;5149037;28;20038;-47
2021/10/02 06:36:17;;;;;;;7.97;2.53;;;22.70;62.70;;;;;;5151013;28;20062;-50
2021/10/02 06:38:49;;;;;;;7.15;2.60;;;22.70;62.70;;;;;;5138910;28;20046;-49
2021/10/02 06:41:22;;;;;;;8.18;2.65;;;22.70;62.80;;;;;;5144390;28;20069;-47
2021/10/02 06:43:55;;;;;;;8.68;2.92;;;22.70;62.80;;;;;;5160355;28;20058;-48
2021/10/02 06:46:31;;;;;;;6.75;3.17;;;22.70;62.80;;;;;;5154793;28;20050;-48
2021/10/02 06:49:03;;;;;;;7.53;2.50;;;22.70;62.90;;;;;;5156374;28;20348;-48
2021/10/02 06:51:36;;;;;;;13.60;3.75;;;22.70;62.80;;;;;;5147738;28;20054;-49
2021/10/02 06:54:08;;;;;;;12.30;3.20;;;22.70;62.80;;;;;;5144106;28;20060;-51
2021/10/02 06:56:41;;;;;;;7.45;3.08;;;22.70;62.70;;;;;;5147678;28;20129;-48
2021/10/02 06:59:14;;;;;;;9.02;3.67;;;22.70;62.60;;;;;;5147720;28;20438;-51
2021/10/02 07:01:46;;;;;;;18.65;3.38;;;22.70;62.60;;;;;;5151842;28;20414;-49
2021/10/02 07:04:19;;;;;;;10.70;3.33;;;22.70;62.50;;;;;;5147834;28;20057;-51
2021/10/02 07:07:00;;;;;;;10.98;2.70;;;22.70;62.60;;;;;;5146841;28;20309;-51
2021/10/02 07:09:33;;;;;;;7.35;3.30;;;22.70;62.50;;;;;;5150272;28;20573;-50
2021/10/02 07:12:07;;;;;;;13.40;3.75;;;22.70;62.60;;;;;;5139898;28;20033;-48
2021/10/02 07:14:40;;;;;;;7.03;3.63;;;22.70;62.70;;;;;;5159310;28;20742;-49
2021/10/02 07:17:13;;;;;;;7.50;3.63;;;22.70;62.70;;;;;;5152092;28;20050;-48
2021/10/02 07:19:45;;;;;;;;;;;22.80;62.80;;;;;;5144713;28;20646;-52
2021/10/02 07:22:18;;;;;;;11.80;3.45;;;22.70;62.80;;;;;;5146627;28;19948;-49
2021/10/02 07:24:50;;;;;;;8.40;3.72;;;22.80;62.80;;;;;;5154536;28;20046;-47
2021/10/02 07:27:23;;;;;;;9.13;3.10;;;22.80;62.90;;;;;;5149880;28;20495;-48
2021/10/02 07:29:55;;;;;;;10.37;3.33;;;22.80;62.90;;;;;;5153245;28;20069;-47
2021/10/02 07:32:28;;;;;;;9.98;4.07;;;22.80;62.90;;;;;;5147949;28;20685;-46
2021/10/02 07:35:01;;;;;;;8.00;3.20;;;22.90;63.00;;;;;;5156770;28;20056;-50
2021/10/02 07:37:35;;;;;;;10.52;2.83;;;22.90;63.10;;;;;;5140595;28;20057;-47
2021/10/02 07:40:10;;;;;;;10.17;2.97;;;22.90;63.10;;;;;;5145965;28;20049;-47
2021/10/02 07:42:49;;;;;;;14.85;3.88;;;22.90;63.70;;;;;;5148022;28;20057;-48
2021/10/02 07:45:23;;;;;;;7.90;2.95;;;22.90;63.10;;;;;;5149995;28;20046;-48
2021/10/02 07:47:57;;;;;;;9.45;3.20;;;22.90;63.10;;;;;;5149125;28;20049;-47
2021/10/02 07:50:30;;;;;;;7.75;2.90;;;22.90;63.20;;;;;;5150302;28;20407;-47
2021/10/02 07:53:02;;;;;;;8.00;2.95;;;22.90;63.20;;;;;;5144992;28;20564;-47
2021/10/02 07:55:35;;;;;;;10.53;3.50;;;23.00;63.30;;;;;;5147797;28;20050;-48
2021/10/02 07:58:07;;;;;;;10.18;3.03;;;23.00;63.30;;;;;;5149266;28;20584;-48
2021/10/02 08:00:40;;;;;;;11.38;3.10;;;23.00;63.30;;;;;;5158482;28;20526;-48
2021/10/02 08:03:13;;;;;;;9.15;3.17;;;23.00;63.40;;;;;;5165663;28;20068;-50
2021/10/02 08:05:47;;;;;;;10.32;3.22;;;23.00;63.40;;;;;;5162853;28;20038;-49
2021/10/02 08:08:21;;;;;;;11.77;3.38;;;23.00;64.10;;;;;;5163702;28;20045;-47
2021/10/02 08:10:53;;;;;;;;;;;23.00;63.50;;;;;;5166662;28;20751;-47
2021/10/02 08:13:25;;;;;;;11.27;2.97;;;23.00;63.60;;;;;;5165125;28;19976;-49
2021/10/02 08:16:00;;;;;;;7.78;3.60;;;23.00;63.60;;;;;;5162896;28;20037;-50
2021/10/02 08:18:38;;;;;;;9.98;2.88;;;23.00;63.60;;;;;;5157851;28;20495;-49
2021/10/02 08:21:12;;;;;;;6.07;2.50;;;23.00;63.70;;;;;;5156779;28;20410;-47
2021/10/02 08:23:46;;;;;;;8.27;3.38;;;23.00;63.70;;;;;;5151623;28;20072;-49
2021/10/02 08:26:20;;;;;;;10.25;3.17;;;23.00;63.70;;;;;;5154153;28;20054;-52
2021/10/02 08:28:53;;;;;;;5.43;2.53;;;23.00;63.70;;;;;;5158981;28;20645;-49
2021/10/02 08:31:26;;;;;;;6.93;3.40;;;23.00;63.70;;;;;;5175488;28;20053;-47
2021/10/02 08:34:16;;;;;;;5.78;2.80;;;23.00;63.80;;;;;;5150323;28;20064;-47
2021/10/02 08:36:48;;;;;;;7.53;3.25;;;23.00;63.80;;;;;;5159533;28;20056;-50
2021/10/02 08:39:21;;;;;;;6.32;2.72;;;23.00;63.80;;;;;;5148070;28;20038;-50
2021/10/02 08:41:54;;;;;;;6.40;3.13;;;23.00;63.80;;;;;;5146640;28;20089;-47
2021/10/02 08:44:28;;;;;;;5.37;3.53;;;23.00;63.80;;;;;;5154539;28;20054;-48
2021/10/02 08:47:02;;;;;;;6.60;2.88;;;23.00;63.70;;;;;;5145476;28;20061;-49
2021/10/02 08:49:37;;;;;;;12.57;3.00;;;23.00;63.60;;;;;;5151720;28;20046;-48
2021/10/02 08:52:11;;;;;;;5.43;2.55;;;23.00;63.60;;;;;;5143738;28;20061;-48
2021/10/02 08:54:46;;;;;;;6.05;2.67;;;23.00;63.50;;;;;;5133108;28;20169;-49
2021/10/02 08:57:24;;;;;;;7.53;3.20;;;23.00;63.50;;;;;;5147021;28;20900;-49
2021/10/02 08:59:57;;;;;;;5.97;3.00;;;23.00;63.40;;;;;;5152921;28;20054;-49
2021/10/02 09:02:30;;;;;;;8.95;2.80;;;23.00;63.40;;;;;;5166549;28;20053;-47
2021/10/02 09:05:06;;;;;;;7.53;3.07;;;23.00;63.40;;;;;;5158750;28;20053;-46
2021/10/02 09:07:38;;;;;;;9.10;3.30;;;23.00;63.30;;;;;;5161496;28;20045;-49
2021/10/02 09:10:12;;;;;;;7.25;3.22;;;23.00;63.40;;;;;;5152146;28;20325;-48
2021/10/02 09:12:45;;;;;;;7.20;3.33;;;23.00;63.30;;;;;;5167762;28;20049;-48
2021/10/02 09:15:18;;;;;;;4.93;2.72;;;23.00;63.40;;;;;;5144220;28;20061;-47
2021/10/02 09:17:51;;;;;;;18.85;4.13;;;23.00;63.40;;;;;;5143994;28;20057;-48
2021/10/02 09:20:25;;;;;;;15.35;3.85;;;23.00;63.70;;;;;;5136639;28;20042;-56
2021/10/02 09:23:04;;;;;;;16.63;3.83;;;22.90;63.80;;;;;;5126824;28;20045;-55
2021/10/02 09:25:46;;;;;;;13.57;4.25;;;23.00;64.10;;;;;;5117101;28;20169;-58
2021/10/02 09:28:18;;;;;;;13.80;3.45;;;23.00;64.20;;;;;;5098605;28;20316;-58
2021/10/02 09:31:03;;;;;;;14.55;3.00;;;23.10;64.20;;;;;;5123843;28;20976;-56
2021/10/02 09:33:44;;;;;;;13.05;3.97;;;23.10;64.00;;;;;;5121835;28;20046;-57
2021/10/02 09:36:23;;;;;;;11.20;3.47;;;23.20;63.90;;;;;;5115794;28;22021;-55
2021/10/02 09:38:56;;;;;;;9.02;3.17;;;23.20;63.80;;;;;;5131762;28;20060;-55
2021/10/02 09:41:49;;;;;;;11.15;3.90;;;23.30;63.70;;;;;;5117449;28;20988;-56
2021/10/02 09:44:23;;;;;;;7.72;3.40;;;23.30;63.60;;;;;;5117506;28;20057;-56
2021/10/02 09:46:56;;;;;;;13.15;3.38;;;23.30;63.50;;;;;;5124200;28;20313;-58
2021/10/02 09:49:47;;;;;;;7.88;3.33;;;23.40;63.50;;;;;;5124625;28;20046;-56
2021/10/02 09:52:30;;;;;;;9.73;3.03;;;23.40;63.50;;;;;;5130480;28;20525;-59
2021/10/02 09:55:19;;;;;;;7.22;3.00;;;23.50;63.40;;;;;;5134360;28;20442;-57
2021/10/02 09:57:59;;;;;;;12.63;3.42;;;23.50;63.30;;;;;;5144413;28;20535;-59
2021/10/02 10:00:35;;;;;;;8.68;3.33;;;23.50;63.30;;;;;;5111348;28;20083;-60
2021/10/02 10:03:11;;;;;;;10.63;3.35;;;23.50;63.50;;;;;;5142888;28;20072;-48
2021/10/02 10:05:46;;;;;;;14.20;3.38;;;23.60;63.30;;;;;;5146079;28;20045;-46
2021/10/02 10:08:26;;;;;;;11.23;3.65;;;23.70;63.00;;;;;;5149223;28;20061;-47
2021/10/02 10:11:08;;;;;;;7.88;3.25;;;23.70;62.80;;;;;;5162554;28;20050;-48
2021/10/02 10:13:40;;;;;;;9.77;3.63;;;23.70;62.80;;;;;;5148482;28;20045;-46
2021/10/02 10:16:13;;;;;;;12.85;3.35;;;23.70;62.80;;;;;;5145985;28;20045;-47
2021/10/02 10:18:45;;;;;;;12.13;3.80;;;23.70;62.90;;;;;;5159557;28;20054;-47
2021/10/02 10:21:18;;;;;;;10.93;3.47;;;23.70;62.90;;;;;;5152441;28;20049;-48
2021/10/02 10:23:51;;;;;;;17.20;3.85;;;23.60;63.00;;;;;;5157180;28;20050;-46
2021/10/02 10:26:25;;;;;;;9.07;3.72;;;23.60;63.10;;;;;;5140000;28;21900;-48
2021/10/02 10:29:01;;;;;;;13.68;3.78;;;23.60;63.20;;;;;;5146044;28;20072;-46
2021/10/02 10:31:34;;;;;;;10.73;3.58;;;23.60;63.30;;;;;;5141536;28;20045;-45
2021/10/02 10:34:08;;;;;;;9.63;3.53;;;23.60;63.30;;;;;;5158666;28;20046;-46
2021/10/02 10:36:40;;;;;;;;;;;23.60;63.30;;;;;;5151691;28;20061;-47
2021/10/02 10:39:12;;;;;;;18.83;3.67;;;23.50;63.40;;;;;;5139930;28;19926;-47
2021/10/02 10:41:45;;;;;;;12.85;3.97;;;23.50;63.40;;;;;;5147115;28;20050;-47
2021/10/02 10:44:17;;;;;;;12.30;4.15;;;23.50;63.50;;;;;;5152263;28;20622;-46
2021/10/02 10:46:50;;;;;;;12.52;5.85;;;23.60;63.70;;;;;;5151872;28;20129;-47
2021/10/02 10:49:24;;;;;;;15.23;7.10;;;23.60;63.60;;;;;;5161689;28;20096;-46
2021/10/02 10:52:02;;;;;;;24.50;12.10;;;23.60;63.50;;;;;;5145111;28;20042;-49
2021/10/02 10:54:41;;;;;;;20.92;14.25;;;23.70;63.30;;;;;;5146812;28;20072;-47
2021/10/02 10:57:34;;;;;;;25.27;15.68;;;23.70;63.00;;;;;;5144246;28;20057;-50
2021/10/02 11:00:10;;;;;;;27.52;16.20;;;23.70;62.70;;;;;;5152062;28;20050;-49
2021/10/02 11:02:49;;;;;;;28.92;16.38;;;23.80;62.70;;;;;;5155145;28;20169;-47
2021/10/02 11:05:37;;;;;;;28.48;18.38;;;23.80;62.40;;;;;;5148680;28;20068;-50
2021/10/02 11:08:13;;;;;;;27.52;16.88;;;23.90;62.20;;;;;;5144848;28;20046;-49
2021/10/02 11:10:49;;;;;;;34.78;18.73;;;23.90;62.10;;;;;;5134669;28;20056;-46
2021/10/02 11:13:28;;;;;;;30.48;17.80;;;24.00;61.90;;;;;;5138959;28;20945;-50
2021/10/02 11:16:38;;;;;;;30.00;17.35;;;24.00;61.90;;;;;;5141813;28;20339;-51
2021/10/02 11:19:35;;;;;;;26.75;17.20;;;24.10;62.00;;;;;;5145656;28;20058;-46
2021/10/02 11:22:54;;;;;;;29.35;16.98;;;24.20;62.20;;;;;;5152057;28;20061;-49
2021/10/02 11:25:27;;;;;;;24.92;15.88;;;24.30;62.10;;;;;;5141973;28;20065;-50
2021/10/02 11:28:22;;;;;;;30.92;16.05;;;24.30;62.10;;;;;;5145823;28;20486;-49
2021/10/02 11:30:55;;;;;;;26.65;16.98;;;24.30;62.00;;;;;;5149790;28;20077;-47
2021/10/02 11:33:40;;;;;;;26.13;16.23;;;24.40;62.20;;;;;;5143547;28;20870;-46
2021/10/02 11:36:27;;;;;;;32.08;16.70;;;24.40;62.20;;;;;;5140550;28;20061;-49
2021/10/02 11:39:12;;;;;;;25.92;15.27;;;24.40;62.20;;;;;;5124241;28;20045;-47
2021/10/02 11:41:49;;;;;;;27.60;16.08;;;24.50;62.20;;;;;;5137782;28;20049;-48
2021/10/02 11:44:33;;;;;;;26.80;15.52;;;24.50;62.20;;;;;;5123011;28;20080;-50
2021/10/02 11:47:25;;;;;;;27.67;15.55;;;24.60;61.70;;;;;;5116303;28;20050;-49
2021/10/02 11:50:07;;;;;;;26.13;14.25;;;24.60;61.50;;;;;;5121705;28;20325;-46
2021/10/02 11:52:45;;;;;;;18.48;13.70;;;24.60;61.00;;;;;;5126403;28;20400;-48
2021/10/02 11:55:33;;;;;;;23.52;14.10;;;24.60;60.80;;;;;;5137996;28;20040;-46
2021/10/02 11:58:11;;;;;;;17.15;12.52;;;24.70;60.60;;;;;;5134808;28;20046;-50
2021/10/02 12:00:50;;;;;;;22.42;12.93;;;24.70;60.50;;;;;;5137523;28;20045;-46
2021/10/02 12:03:26;;;;;;;17.73;11.80;;;24.70;60.40;;;;;;5146349;28;20049;-50
2021/10/02 12:06:01;;;;;;;16.98;11.95;;;24.70;60.30;;;;;;5132783;28;20422;-47
2021/10/02 12:08:34;;;;;;;20.10;11.65;;;24.70;60.20;;;;;;5137030;28;20042;-47
2021/10/02 12:11:11;;;;;;;18.17;12.03;;;24.70;60.20;;;;;;5131986;28;21761;-48
2021/10/02 12:13:52;;;;;;;15.57;11.63;;;24.80;60.10;;;;;;5138672;28;20049;-48
2021/10/02 12:16:27;;;;;;;21.25;11.80;;;24.80;60.10;;;;;;5138225;28;20042;-48
2021/10/02 12:19:06;;;;;;;15.85;10.65;;;24.80;60.00;;;;;;5175167;28;20458;-48
2021/10/02 12:21:57;;;;;;;19.42;11.38;;;24.80;59.90;;;;;;5138110;28;20057;-48
2021/10/02 12:24:35;;;;;;;15.57;11.18;;;24.90;59.90;;;;;;5136837;28;20064;-45
2021/10/02 12:27:16;;;;;;;13.40;10.52;;;24.90;59.90;;;;;;5138723;28;20108;-48
2021/10/02 12:29:51;;;;;;;15.35;11.10;;;24.90;59.80;;;;;;5141618;28;20057;-47
2021/10/02 12:32:25;;;;;;;16.27;9.98;;;24.90;59.70;;;;;;5162415;28;20097;-51
2021/10/02 12:35:00;;;;;;;12.93;9.90;;;25.00;59.80;;;;;;5154720;28;20442;-49
2021/10/02 12:37:34;;;;;;;14.98;10.13;;;25.00;59.60;;;;;;5152721;28;20064;-47
2021/10/02 12:40:10;;;;;;;22.10;10.50;;;25.00;59.60;;;;;;5156231;28;20050;-50
2021/10/02 12:42:50;;;;;;;12.52;10.15;;;25.00;59.50;;;;;;5129778;28;20066;-47
2021/10/02 12:45:33;;;;;;;14.50;9.65;;;25.10;59.50;;;;;;5140708;28;20049;-50
2021/10/02 12:48:06;;;;;;;13.20;9.93;;;25.10;59.40;;;;;;5147124;28;20504;-48
2021/10/02 12:50:42;;;;;;;12.55;9.60;;;25.10;59.30;;;;;;5135530;28;20065;-50
2021/10/02 12:53:18;;;;;;;12.77;10.23;;;25.20;59.30;;;;;;5169497;28;20463;-47
2021/10/02 12:55:50;;;;;;;14.65;10.30;;;25.20;59.20;;;;;;5141179;28;20052;-47
2021/10/02 12:58:24;;;;;;;13.82;9.90;;;25.30;59.30;;;;;;5164394;28;20052;-47
2021/10/02 13:00:56;;;;;;;14.63;9.52;;;25.30;59.20;;;;;;5135645;28;20054;-46
2021/10/02 13:03:30;;;;;;;16.83;9.83;;;25.30;59.20;;;;;;5140930;28;20056;-46
2021/10/02 13:06:03;;;;;;;10.85;9.25;;;25.30;59.10;;;;;;5133611;28;20049;-47
2021/10/02 13:08:35;;;;;;;14.05;9.70;;;25.30;59.10;;;;;;5127433;28;20052;-46
2021/10/02 13:11:09;;;;;;;12.35;9.82;;;25.40;59.10;;;;;;5136457;28;20058;-48
2021/10/02 13:13:41;;;;;;;14.55;9.68;;;25.40;59.10;;;;;;5132393;28;20096;-48
2021/10/02 13:16:20;;;;;;;11.10;8.88;;;25.40;59.00;;;;;;5136977;28;20046;-46
2021/10/02 13:18:54;;;;;;;10.48;8.60;;;25.40;59.00;;;;;;5142695;28;20065;-47
2021/10/02 13:21:27;;;;;;;12.48;9.02;;;25.50;59.00;;;;;;5142175;28;22731;-46
2021/10/02 13:24:07;;;;;;;12.15;9.15;;;25.50;59.00;;;;;;5140407;28;20481;-45
2021/10/02 13:26:46;;;;;;;11.95;10.02;;;25.50;58.90;;;;;;5149781;28;20478;-47
2021/10/02 13:29:25;;;;;;;11.07;8.35;;;25.60;58.90;;;;;;5146581;28;20038;-47
2021/10/02 13:32:16;;;;;;;12.15;9.63;;;25.60;59.50;;;;;;5150892;28;20046;-47
2021/10/02 13:34:54;;;;;;;13.77;8.90;;;25.60;58.80;;;;;;5143484;28;20058;-49
2021/10/02 13:37:27;;;;;;;12.38;8.75;;;25.60;58.70;;;;;;5151557;28;20526;-51
2021/10/02 13:40:04;;;;;;;11.48;9.23;;;25.60;58.70;;;;;;5142653;28;20049;-49
2021/10/02 13:42:36;;;;;;;12.77;8.90;;;25.70;58.80;;;;;;5150083;28;20053;-46
2021/10/02 13:45:09;;;;;;;11.90;8.65;;;25.60;58.60;;;;;;5146026;28;20072;-48
2021/10/02 13:47:54;;;;;;;11.93;9.10;;;25.60;58.60;;;;;;5140683;28;20053;-50
2021/10/02 13:50:27;;;;;;;10.90;8.80;;;25.70;58.60;;;;;;5145406;28;20213;-48
2021/10/02 13:53:00;;;;;;;10.47;8.27;;;25.70;58.70;;;;;;5144082;28;20046;-47
2021/10/02 13:55:33;;;;;;;11.25;8.60;;;25.70;58.70;;;;;;5142091;28;20042;-47
2021/10/02 13:58:06;;;;;;;13.65;9.02;;;25.70;58.60;;;;;;5140425;28;20502;-47
2021/10/02 14:00:39;;;;;;;10.60;8.55;;;25.70;58.60;;;;;;5156395;28;20049;-49
2021/10/02 14:03:12;;;;;;;15.60;9.27;;;25.70;58.60;;;;;;5143751;28;20042;-48
2021/10/02 14:05:44;;;;;;;10.57;8.15;;;25.70;58.60;;;;;;5145499;28;20068;-49
2021/10/02 14:08:17;;;;;;;10.60;8.70;;;25.70;58.60;;;;;;5145508;28;20066;-48
2021/10/02 14:10:49;;;;;;;11.50;8.02;;;25.80;58.50;;;;;;5146335;28;20045;-47
2021/10/02 14:13:22;;;;;;;12.37;8.70;;;25.80;58.50;;;;;;5145430;28;20527;-50
2021/10/02 14:15:54;;;;;;;11.75;8.35;;;25.80;58.50;;;;;;5152543;28;20300;-47
2021/10/02 14:18:27;;;;;;;11.45;8.68;;;25.80;58.50;;;;;;5160697;28;20054;-47
2021/10/02 14:20:59;;;;;;;10.70;7.95;;;25.80;58.60;;;;;;5142224;28;20057;-50